Time;durP1;ratioP1;P1;durP2;ratioP2;P2;SDS_P1;SDS_P2;PMS_P1;PMS_P2;Temp;Humidity;BMP_temperature;BMP_pressure;BME280_temperature;BME280_humidity;BME280_pressure;Samples;Min_cycle;Max_cycle;Signal;HPM_P1;HPM_P2
2021/12/12 00:02:08;;;;;;;41.90;17.10;;;;;;;;;;5039258;28;20104;-55
2021/12/12 00:04:36;;;;;;;36.60;16.58;;;;;;;;;;5035210;28;20036;-57
2021/12/12 00:07:05;;;;;;;42.63;16.23;;;;;;;;;;5027174;28;20447;-57
2021/12/12 00:09:35;;;;;;;44.83;17.15;;;;;;;;;;5040396;28;20029;-56
2021/12/12 00:12:04;;;;;;;41.15;16.45;;;;;;;;;;5031572;28;20033;-57
2021/12/12 00:14:31;;;;;;;42.72;16.90;;;;;;;;;;5036541;28;20034;-56
2021/12/12 00:16:58;;;;;;;43.17;16.48;;;;;;;;;;5027641;28;20048;-54
2021/12/12 00:19:25;;;;;;;42.30;16.48;;;;;;;;;;5033597;28;20079;-56
2021/12/12 00:21:52;;;;;;;43.67;18.40;;;;;;;;;;5033209;28;20028;-57
2021/12/12 00:24:19;;;;;;;47.50;16.33;;;;;;;;;;5033113;28;20053;-55
2021/12/12 00:26:46;;;;;;;50.67;19.20;;;;;;;;;;5027939;28;20017;-54
2021/12/12 00:29:13;;;;;;;43.42;17.80;;;;;;;;;;5032613;28;20037;-52
2021/12/12 00:31:39;;;;;;;46.30;17.90;;;;;;;;;;5019720;28;20029;-57
2021/12/12 00:34:06;;;;;;;41.75;17.85;;;;;;;;;;5024111;28;20056;-56
2021/12/12 00:36:34;;;;;;;41.63;18.10;;;;;;;;;;5030824;28;20038;-56
2021/12/12 00:39:02;;;;;;;37.75;17.08;;;;;;;;;;5030487;28;20127;-52
2021/12/12 00:41:30;;;;;;;37.17;16.52;;;;;;;;;;5030189;28;20026;-53
2021/12/12 00:43:56;;;;;;;39.70;17.63;;;;;;;;;;5023638;28;20026;-53
2021/12/12 00:46:23;;;;;;;40.88;16.42;;;;;;;;;;5029170;28;20034;-54
2021/12/12 00:48:49;;;;;;;36.65;15.88;;;;;;;;;;5025826;28;20052;-52
2021/12/12 00:51:17;;;;;;;41.88;18.13;;;;;;;;;;5026913;28;20500;-54
2021/12/12 00:53:44;;;;;;;36.35;15.93;;;;;;;;;;5026495;28;20384;-55
2021/12/12 00:56:11;;;;;;;40.42;16.23;;;;;;;;;;5027971;28;20433;-56
2021/12/12 00:58:37;;;;;;;32.35;14.48;;;;;;;;;;5024116;28;20109;-57
2021/12/12 01:01:08;;;;;;;40.55;16.38;;;;;;;;;;5027391;28;20021;-56
2021/12/12 01:03:36;;;;;;;37.50;16.00;;;;;;;;;;5023256;28;20040;-55
2021/12/12 01:06:03;;;;;;;32.80;15.10;;;;;;;;;;5024850;28;20029;-55
2021/12/12 01:08:29;;;;;;;31.83;14.80;;;;;;;;;;5024720;28;20105;-56
2021/12/12 01:10:58;;;;;;;37.30;16.45;;;;;;;;;;5024809;28;20112;-58
2021/12/12 01:13:24;;;;;;;33.17;14.95;;;;;;;;;;5023562;28;20030;-56
2021/12/12 01:15:53;;;;;;;40.53;15.35;;;;;;;;;;5028658;28;20124;-56
2021/12/12 01:18:22;;;;;;;35.08;15.55;;;;;;;;;;5026562;28;20045;-58
2021/12/12 01:20:50;;;;;;;37.60;15.55;;;;;;;;;;5029235;28;20034;-57
2021/12/12 01:23:25;;;;;;;36.28;16.23;;;;;;;;;;5031564;28;20025;-57
2021/12/12 01:25:53;;;;;;;36.63;15.10;;;;;;;;;;5025455;28;20025;-55
2021/12/12 01:28:21;;;;;;;35.97;15.73;;;;;;;;;;5030451;28;20037;-56
2021/12/12 01:30:48;;;;;;;37.58;15.52;;;;;;;;;;5029104;28;20137;-58
2021/12/12 01:33:21;;;;;;;35.88;16.20;;;;;;;;;;5032247;28;20045;-57
2021/12/12 01:35:48;;;;;;;33.05;14.73;;;;;;;;;;5031287;28;20044;-57
2021/12/12 01:40:59;;;;;;;33.35;14.90;;;;;;;;;;5026674;28;20045;-57
2021/12/12 01:43:27;;;;;;;34.63;16.70;;;;;;;;;;5024005;28;20029;-58
2021/12/12 01:45:58;;;;;;;39.83;16.08;;;;;;;;;;5028977;28;20044;-54
2021/12/12 01:48:27;;;;;;;33.17;14.77;;;;;;;;;;5029696;28;20386;-56
2021/12/12 01:50:55;;;;;;;34.38;14.48;;;;;;;;;;5029226;28;20152;-57
2021/12/12 01:53:23;;;;;;;31.80;15.38;;;;;;;;;;5028954;28;20065;-58
2021/12/12 01:55:55;;;;;;;30.85;14.30;;;;;;;;;;5028006;28;20040;-56
2021/12/12 01:58:24;;;;;;;32.40;14.37;;;;;;;;;;5026578;28;20026;-54
2021/12/12 02:00:55;;;;;;;35.17;14.88;;;;;;;;;;5025539;28;20548;-53
2021/12/12 02:03:23;;;;;;;31.48;13.32;;;;;;;;;;5019557;28;20026;-55
2021/12/12 02:05:49;;;;;;;32.75;14.80;;;;;;;;;;5022471;28;20034;-55
2021/12/12 02:08:17;;;;;;;33.33;13.48;;;;;;;;;;5019328;28;20034;-57
2021/12/12 02:10:45;;;;;;;32.55;13.65;;;;;;;;;;5029370;28;20116;-56
2021/12/12 02:13:12;;;;;;;31.67;14.50;;;;;;;;;;5026394;28;20156;-57
2021/12/12 02:15:39;;;;;;;33.40;14.57;;;;;;;;;;5028605;28;20034;-55
2021/12/12 02:18:09;;;;;;;34.20;14.35;;;;;;;;;;5024801;28;20052;-56
2021/12/12 02:20:40;;;;;;;31.70;14.63;;;;;;;;;;5033166;28;20037;-53
2021/12/12 02:36:40;;;;;;;30.83;15.15;;;;;;;;;;5034403;28;20045;-58
2021/12/12 02:39:15;;;;;;;36.03;14.52;;;;;;;;;;5034780;28;20037;-58
2021/12/12 02:41:41;;;;;;;29.08;13.68;;;;;;;;;;5027228;28;20037;-56
2021/12/12 02:44:08;;;;;;;32.97;14.10;;;;;;;;;;5034118;28;20325;-57
2021/12/12 02:46:36;;;;;;;35.38;15.05;;;;;;;;;;5031543;28;20097;-56
2021/12/12 02:49:12;;;;;;;32.70;14.65;;;;;;;;;;5033115;28;20026;-54
2021/12/12 02:51:39;;;;;;;32.90;13.75;;;;;;;;;;5030497;28;20026;-56
2021/12/12 02:54:07;;;;;;;31.63;13.98;;;;;;;;;;5031883;28;20132;-54
2021/12/12 02:56:38;;;;;;;30.65;14.10;;;;;;;;;;5029852;28;20062;-53
2021/12/12 02:59:06;;;;;;;31.40;14.02;;;;;;;;;;5031725;28;20029;-52
2021/12/12 03:01:36;;;;;;;31.60;13.85;;;;;;;;;;5028157;28;20076;-52
2021/12/12 03:04:02;;;;;;;28.48;13.10;;;;;;;;;;5030334;28;20030;-53
2021/12/12 03:06:29;;;;;;;36.17;14.73;;;;;;;;;;5025095;28;20156;-54
2021/12/12 03:08:59;;;;;;;31.77;13.93;;;;;;;;;;5028977;28;20475;-52
2021/12/12 03:11:27;;;;;;;31.83;14.15;;;;;;;;;;5024060;28;20104;-52
2021/12/12 03:13:53;;;;;;;30.20;13.43;;;;;;;;;;5032128;28;20032;-55
2021/12/12 03:16:20;;;;;;;30.67;13.48;;;;;;;;;;5023066;28;20044;-52
2021/12/12 03:18:46;;;;;;;32.10;13.88;;;;;;;;;;5025560;28;20036;-53
2021/12/12 03:21:32;;;;;;;32.80;14.95;;;;;;;;;;5034727;28;20053;-52
2021/12/12 03:24:00;;;;;;;34.63;13.52;;;;;;;;;;5023398;28;20026;-53
2021/12/12 03:26:27;;;;;;;31.55;14.23;;;;;;;;;;5026313;28;20100;-56
2021/12/12 03:28:55;;;;;;;32.40;14.40;;;;;;;;;;5029730;28;20602;-52
2021/12/12 03:31:24;;;;;;;28.90;13.40;;;;;;;;;;5033772;28;20090;-52
2021/12/12 03:33:50;;;;;;;25.90;13.25;;;;;;;;;;5023698;28;20508;-53
2021/12/12 03:36:17;;;;;;;27.83;13.55;;;;;;;;;;5034204;28;20092;-56
2021/12/12 03:38:44;;;;;;;35.08;14.43;;;;;;;;;;5031278;28;20049;-53
2021/12/12 03:41:13;;;;;;;29.60;13.93;;;;;;;;;;5031528;28;20022;-54
2021/12/12 03:43:39;;;;;;;30.52;13.05;;;;;;;;;;5031602;28;20064;-55
2021/12/12 03:46:10;;;;;;;27.73;14.40;;;;;;;;;;5029604;28;20092;-56
2021/12/12 03:48:37;;;;;;;25.98;12.25;;;;;;;;;;5030954;28;20367;-58
2021/12/12 03:51:05;;;;;;;28.52;13.23;;;;;;;;;;5027483;28;20088;-58
2021/12/12 03:53:31;;;;;;;34.78;13.50;;;;;;;;;;5033552;28;20116;-58
2021/12/12 03:55:58;;;;;;;30.88;14.32;;;;;;;;;;5028293;28;20030;-58
2021/12/12 03:58:24;;;;;;;33.50;14.55;;;;;;;;;;5027894;28;20144;-55
2021/12/12 04:01:00;;;;;;;29.65;13.18;;;;;;;;;;5028132;28;20105;-58
2021/12/12 04:03:27;;;;;;;24.48;12.75;;;;;;;;;;5027555;28;20376;-56
2021/12/12 04:05:59;;;;;;;28.08;14.02;;;;;;;;;;5028846;28;20025;-58
2021/12/12 04:08:30;;;;;;;31.30;13.82;;;;;;;;;;5024029;28;20025;-56
2021/12/12 04:10:56;;;;;;;29.70;13.43;;;;;;;;;;5023696;28;20602;-56
2021/12/12 04:13:22;;;;;;;30.95;13.68;;;;;;;;;;5030631;28;20080;-58
2021/12/12 04:15:55;;;;;;;27.10;12.50;;;;;;;;;;5023846;28;20112;-53
2021/12/12 04:18:23;;;;;;;27.00;12.38;;;;;;;;;;5022998;28;20569;-55
2021/12/12 04:20:49;;;;;;;31.58;13.63;;;;;;;;;;5033653;28;20026;-53
2021/12/12 04:23:19;;;;;;;26.40;12.63;;;;;;;;;;5028766;28;20665;-57
2021/12/12 04:25:45;;;;;;;28.45;12.10;;;;;;;;;;5028158;28;20037;-53
2021/12/12 04:28:11;;;;;;;28.98;12.63;;;;;;;;;;5032329;28;20041;-55
2021/12/12 04:30:37;;;;;;;27.10;12.80;;;;;;;;;;5025389;28;20133;-55
2021/12/12 04:33:03;;;;;;;28.42;13.65;;;;;;;;;;5026504;28;20034;-53
2021/12/12 04:35:30;;;;;;;25.92;12.35;;;;;;;;;;5033175;28;20033;-53
2021/12/12 04:37:57;;;;;;;30.17;12.85;;;;;;;;;;5031358;28;20564;-52
2021/12/12 04:40:25;;;;;;;26.48;12.30;;;;;;;;;;5026331;28;20089;-52
2021/12/12 04:42:53;;;;;;;28.65;12.73;;;;;;;;;;5032106;28;20060;-54
2021/12/12 04:45:31;;;;;;;27.73;13.00;;;;;;;;;;5031200;28;20022;-56
2021/12/12 04:51:02;;;;;;;28.30;13.05;;;;;;;;;;5027558;28;20052;-52
2021/12/12 04:53:41;;;;;;;27.92;12.35;;;;;;;;;;5029601;28;20031;-52
2021/12/12 04:56:26;;;;;;;27.25;13.00;;;;;;;;;;5025784;28;20376;-55
2021/12/12 04:59:02;;;;;;;26.58;12.90;;;;;;;;;;5027848;28;20064;-56
2021/12/12 05:01:31;;;;;;;30.25;12.02;;;;;;;;;;5023936;28;20594;-58
2021/12/12 05:04:00;;;;;;;27.20;12.02;;;;;;;;;;5024715;28;20483;-55
2021/12/12 05:06:29;;;;;;;27.92;12.80;;;;;;;;;;5029852;28;20032;-58
2021/12/12 05:09:06;;;;;;;24.27;12.60;;;;;;;;;;5025779;28;20052;-58
2021/12/12 05:11:39;;;;;;;22.30;11.20;;;;;;;;;;5027220;28;20080;-54
2021/12/12 05:14:09;;;;;;;28.65;12.13;;;;;;;;;;5027290;28;20035;-55
2021/12/12 05:16:42;;;;;;;27.10;12.00;;;;;;;;;;5022447;28;20148;-53
2021/12/12 05:19:14;;;;;;;31.27;13.02;;;;;;;;;;5019886;28;20097;-54
2021/12/12 05:21:50;;;;;;;22.42;11.52;;;;;;;;;;5031804;28;20029;-55
2021/12/12 05:24:16;;;;;;;28.08;13.00;;;;;;;;;;5030873;28;20029;-58
2021/12/12 05:26:52;;;;;;;27.08;11.95;;;;;;;;;;5027090;28;20033;-56
2021/12/12 05:29:20;;;;;;;25.05;11.38;;;;;;;;;;5030508;28;20037;-55
2021/12/12 05:31:48;;;;;;;24.75;11.90;;;;;;;;;;5032488;28;20026;-54
2021/12/12 05:34:15;;;;;;;28.63;11.65;;;;;;;;;;5033142;28;20099;-57
2021/12/12 05:36:41;;;;;;;29.45;12.05;;;;;;;;;;5019530;28;20040;-58
2021/12/12 05:39:07;;;;;;;28.95;12.77;;;;;;;;;;5031957;28;20108;-55
2021/12/12 05:41:33;;;;;;;29.40;12.90;;;;;;;;;;5033595;28;20021;-53
2021/12/12 05:44:02;;;;;;;29.45;12.35;;;;;;;;;;5034292;28;20021;-56
2021/12/12 05:46:28;;;;;;;27.67;11.88;;;;;;;;;;5031071;28;20121;-53
2021/12/12 05:48:54;;;;;;;27.80;11.65;;;;;;;;;;5030423;28;20104;-55
2021/12/12 05:51:21;;;;;;;23.85;12.32;;;;;;;;;;5039166;28;20029;-54
2021/12/12 05:53:54;;;;;;;26.60;12.32;;;;;;;;;;5042859;28;20346;-56
2021/12/12 05:56:27;;;;;;;26.42;11.73;;;;;;;;;;5032709;28;20380;-55
2021/12/12 05:58:53;;;;;;;27.00;11.07;;;;;;;;;;5039859;28;20111;-54
2021/12/12 06:01:20;;;;;;;24.65;12.15;;;;;;;;;;5036483;28;20427;-57
2021/12/12 06:03:47;;;;;;;25.85;12.13;;;;;;;;;;5040473;28;20025;-57
2021/12/12 06:06:14;;;;;;;26.33;12.52;;;;;;;;;;5040914;28;20032;-53
2021/12/12 06:08:41;;;;;;;24.65;12.20;;;;;;;;;;5040912;28;20025;-54
2021/12/12 06:11:08;;;;;;;28.35;13.40;;;;;;;;;;5041162;28;20036;-52
2021/12/12 06:13:36;;;;;;;27.45;12.60;;;;;;;;;;5032913;28;20030;-57
2021/12/12 06:16:02;;;;;;;24.98;12.50;;;;;;;;;;5040356;28;20661;-58
2021/12/12 06:18:29;;;;;;;25.88;12.35;;;;;;;;;;5036120;28;20061;-58
2021/12/12 06:20:55;;;;;;;27.33;12.65;;;;;;;;;;5035825;28;20112;-57
2021/12/12 06:23:22;;;;;;;27.67;13.15;;;;;;;;;;5035081;28;20055;-58
2021/12/12 06:25:49;;;;;;;23.30;11.55;;;;;;;;;;5035122;28;20523;-55
2021/12/12 06:28:16;;;;;;;27.63;12.82;;;;;;;;;;5033953;28;20033;-57
2021/12/12 06:30:43;;;;;;;29.23;13.65;;;;;;;;;;5032383;28;20030;-54
2021/12/12 06:33:10;;;;;;;27.40;11.75;;;;;;;;;;5029068;28;20124;-57
2021/12/12 06:35:36;;;;;;;28.17;12.63;;;;;;;;;;5035299;28;20124;-56
2021/12/12 06:38:04;;;;;;;29.50;12.18;;;;;;;;;;5028843;28;20026;-54
2021/12/12 06:40:30;;;;;;;29.42;13.68;;;;;;;;;;5027927;28;20034;-56
2021/12/12 06:42:56;;;;;;;29.90;12.77;;;;;;;;;;5028433;28;20037;-55
2021/12/12 06:45:23;;;;;;;24.55;11.20;;;;;;;;;;5037014;28;20030;-58
2021/12/12 06:47:49;;;;;;;29.42;14.10;;;;;;;;;;5036247;28;20089;-52
2021/12/12 06:50:15;;;;;;;28.67;13.65;;;;;;;;;;5039596;28;20029;-56
2021/12/12 06:52:41;;;;;;;33.17;14.25;;;;;;;;;;5032790;28;20033;-52
2021/12/12 06:55:09;;;;;;;31.05;15.98;;;;;;;;;;5040422;28;20204;-55
2021/12/12 06:57:36;;;;;;;35.05;14.82;;;;;;;;;;5038166;28;20035;-57
2021/12/12 07:00:04;;;;;;;29.15;14.05;;;;;;;;;;5039588;28;20105;-54
2021/12/12 07:02:30;;;;;;;30.00;14.32;;;;;;;;;;5032795;28;20478;-54
2021/12/12 07:04:56;;;;;;;35.20;16.70;;;;;;;;;;5035883;28;20113;-53
2021/12/12 07:07:25;;;;;;;37.25;15.05;;;;;;;;;;5038437;28;20028;-58
2021/12/12 07:09:52;;;;;;;33.35;14.27;;;;;;;;;;5045182;28;20037;-54
2021/12/12 07:12:23;;;;;;;35.85;15.05;;;;;;;;;;5028795;28;20038;-58
2021/12/12 07:14:50;;;;;;;30.33;15.27;;;;;;;;;;5037585;28;20432;-56
2021/12/12 07:17:16;;;;;;;28.25;13.75;;;;;;;;;;5039898;28;20037;-58
2021/12/12 07:19:42;;;;;;;30.25;14.25;;;;;;;;;;5040974;28;20393;-53
2021/12/12 07:22:08;;;;;;;28.90;13.98;;;;;;;;;;5033739;28;20466;-56
2021/12/12 07:24:34;;;;;;;31.15;13.85;;;;;;;;;;5034005;28;20025;-55
2021/12/12 07:27:01;;;;;;;34.65;15.07;;;;;;;;;;5031168;28;20029;-57
2021/12/12 07:29:28;;;;;;;29.67;14.35;;;;;;;;;;5028686;28;20073;-56
2021/12/12 07:31:54;;;;;;;31.00;14.10;;;;;;;;;;5031504;28;20470;-53
2021/12/12 07:34:20;;;;;;;28.70;14.43;;;;;;;;;;5034531;28;20608;-56
2021/12/12 07:36:48;;;;;;;33.67;14.85;;;;;;;;;;5032332;28;20086;-57
2021/12/12 07:39:15;;;;;;;33.85;14.50;;;;;;;;;;5033110;28;20389;-58
2021/12/12 07:41:42;;;;;;;29.65;13.25;;;;;;;;;;5028386;28;20465;-55
2021/12/12 07:44:09;;;;;;;30.20;13.40;;;;;;;;;;5031613;28;20096;-57
2021/12/12 07:46:36;;;;;;;31.45;14.50;;;;;;;;;;5028331;28;20041;-56
2021/12/12 07:49:02;;;;;;;31.33;14.35;;;;;;;;;;5033244;28;20037;-56
2021/12/12 07:51:28;;;;;;;29.52;13.48;;;;;;;;;;5029866;28;20128;-54
2021/12/12 07:53:57;;;;;;;31.45;12.95;;;;;;;;;;5030181;28;20044;-55
2021/12/12 07:56:24;;;;;;;34.75;14.32;;;;;;;;;;5035340;28;20128;-56
2021/12/12 07:58:50;;;;;;;29.65;13.43;;;;;;;;;;5024759;28;20065;-56
2021/12/12 08:01:16;;;;;;;25.17;12.68;;;;;;;;;;5029461;28;20033;-55
2021/12/12 08:03:43;;;;;;;35.28;14.52;;;;;;;;;;5019972;28;20026;-55
2021/12/12 08:06:10;;;;;;;27.20;13.13;;;;;;;;;;5028438;28;20744;-58
2021/12/12 08:08:37;;;;;;;30.65;12.88;;;;;;;;;;5032456;28;20040;-57
2021/12/12 08:11:04;;;;;;;29.20;13.18;;;;;;;;;;5029737;28;20029;-57
2021/12/12 08:13:30;;;;;;;37.67;13.80;;;;;;;;;;5030871;28;20040;-58
2021/12/12 08:15:56;;;;;;;71.35;33.55;;;;;;;;;;5032796;28;20029;-56
2021/12/12 08:18:23;;;;;;;34.22;15.35;;;;;;;;;;5027686;28;20474;-55
2021/12/12 08:20:50;;;;;;;31.52;13.32;;;;;;;;;;5032204;28;20048;-53
2021/12/12 08:23:17;;;;;;;34.38;15.05;;;;;;;;;;5027698;28;20104;-55
2021/12/12 08:25:44;;;;;;;28.92;14.35;;;;;;;;;;5027232;28;20116;-55
2021/12/12 08:28:10;;;;;;;33.50;16.08;;;;;;;;;;5029105;28;20110;-58
2021/12/12 08:30:37;;;;;;;29.77;13.25;;;;;;;;;;5029794;28;20116;-58
2021/12/12 08:33:05;;;;;;;31.25;12.85;;;;;;;;;;5030328;28;20112;-57
2021/12/12 08:35:31;;;;;;;30.83;13.35;;;;;;;;;;5038640;28;20045;-56
2021/12/12 08:38:04;;;;;;;30.20;13.38;;;;;;;;;;5034919;28;20049;-57
2021/12/12 08:40:32;;;;;;;29.60;14.57;;;;;;;;;;5031421;28;20034;-56
2021/12/12 08:42:58;;;;;;;33.20;13.48;;;;;;;;;;5031635;28;20108;-55
2021/12/12 08:45:26;;;;;;;31.88;12.85;;;;;;;;;;5033260;28;20035;-57
2021/12/12 08:47:54;;;;;;;30.42;13.73;;;;;;;;;;5016196;28;20076;-55
2021/12/12 08:50:22;;;;;;;39.97;17.88;;;;;;;;;;5028513;28;20025;-56
2021/12/12 08:52:50;;;;;;;30.45;13.55;;;;;;;;;;5030847;28;20029;-58
2021/12/12 08:55:30;;;;;;;37.08;14.20;;;;;;;;;;5027477;28;20117;-57
2021/12/12 09:00:27;;;;;;;30.23;12.45;;;;;;;;;;5030868;28;20040;-54
2021/12/12 09:02:54;;;;;;;28.70;13.35;;;;;;;;;;5039003;28;20488;-57
2021/12/12 09:05:23;;;;;;;27.20;13.23;;;;;;;;;;5019627;28;20080;-56
2021/12/12 09:07:51;;;;;;;28.33;13.25;;;;;;;;;;5027345;28;20608;-55
2021/12/12 09:10:21;;;;;;;28.60;12.93;;;;;;;;;;5031082;28;20121;-54
2021/12/12 09:13:06;;;;;;;35.00;13.48;;;;;;;;;;5030445;28;20026;-54
2021/12/12 09:15:43;;;;;;;32.90;13.05;;;;;;;;;;5031172;28;20080;-53
2021/12/12 09:18:11;;;;;;;27.75;12.48;;;;;;;;;;5031358;28;20065;-56
2021/12/12 09:20:47;;;;;;;34.75;14.15;;;;;;;;;;5030864;28;20033;-56
2021/12/12 09:23:24;;;;;;;28.38;12.65;;;;;;;;;;5027450;28;20037;-54
2021/12/12 09:25:58;;;;;;;32.20;13.55;;;;;;;;;;5035019;28;20116;-57
2021/12/12 09:28:32;;;;;;;29.17;12.80;;;;;;;;;;5029128;28;20030;-58
2021/12/12 09:30:59;;;;;;;28.73;12.95;;;;;;;;;;5030557;28;20108;-58
2021/12/12 09:33:30;;;;;;;30.48;12.65;;;;;;;;;;5039152;28;20047;-54
2021/12/12 09:35:58;;;;;;;29.33;13.43;;;;;;;;;;5029440;28;20064;-56
2021/12/12 09:38:30;;;;;;;33.00;14.23;;;;;;;;;;5034119;28;20429;-56
2021/12/12 09:41:11;;;;;;;25.27;12.07;;;;;;;;;;5028581;28;20113;-58
2021/12/12 09:43:56;;;;;;;28.80;12.93;;;;;;;;;;5029517;28;20642;-57
2021/12/12 09:46:30;;;;;;;32.80;13.73;;;;;;;;;;5022569;28;20029;-56
2021/12/12 09:51:57;;;;;;;30.05;14.25;;;;;;;;;;5029688;28;20037;-57
2021/12/12 09:54:29;;;;;;;28.27;12.80;;;;;;;;;;5037067;28;20037;-58
2021/12/12 09:56:59;;;;;;;28.70;13.15;;;;;;;;;;5034121;28;20026;-58
2021/12/12 09:59:28;;;;;;;28.30;13.13;;;;;;;;;;5025213;28;20018;-58
2021/12/12 10:02:04;;;;;;;31.48;12.88;;;;;;;;;;5026219;28;20068;-55
2021/12/12 10:04:33;;;;;;;29.80;12.85;;;;;;;;;;5024325;28;20533;-58
2021/12/12 10:07:04;;;;;;;33.00;14.35;;;;;;;;;;5028822;28;20061;-57
2021/12/12 10:09:44;;;;;;;31.17;13.77;;;;;;;;;;5032783;28;20473;-57
2021/12/12 10:12:13;;;;;;;28.55;12.45;;;;;;;;;;5035094;28;20033;-57
2021/12/12 10:14:39;;;;;;;28.67;13.95;;;;;;;;;;5035183;28;20545;-57
2021/12/12 10:17:23;;;;;;;31.23;13.95;;;;;;;;;;5033003;28;20029;-58
2021/12/12 10:19:58;;;;;;;36.65;13.77;;;;;;;;;;5033091;28;20072;-57
2021/12/12 10:22:29;;;;;;;32.85;14.60;;;;;;;;;;5032077;28;20099;-57
2021/12/12 10:25:00;;;;;;;25.70;12.27;;;;;;;;;;5030354;28;20025;-57
2021/12/12 10:27:32;;;;;;;30.58;13.65;;;;;;;;;;5031920;28;20113;-58
2021/12/12 10:30:10;;;;;;;28.75;11.63;;;;;;;;;;5031475;28;20033;-58
2021/12/12 10:32:41;;;;;;;31.58;12.90;;;;;;;;;;5033417;28;20474;-55
2021/12/12 10:35:11;;;;;;;33.60;13.07;;;;;;;;;;5031966;28;20037;-58
2021/12/12 10:37:50;;;;;;;31.63;13.43;;;;;;;;;;5032215;28;20037;-58
2021/12/12 10:40:21;;;;;;;32.15;13.32;;;;;;;;;;5032293;28;20028;-58
2021/12/12 10:42:53;;;;;;;26.60;12.60;;;;;;;;;;5036214;28;20454;-58
2021/12/12 10:45:22;;;;;;;28.85;12.40;;;;;;;;;;5032346;28;20025;-57
2021/12/12 10:47:58;;;;;;;27.30;12.48;;;;;;;;;;5025510;28;20057;-56
2021/12/12 10:50:29;;;;;;;21.95;10.90;;;;;;;;;;5031088;28;20041;-57
2021/12/12 10:53:04;;;;;;;29.05;11.93;;;;;;;;;;5029445;28;20385;-57
2021/12/12 10:55:45;;;;;;;27.48;11.50;;;;;;;;;;5026523;28;20041;-56
2021/12/12 10:58:29;;;;;;;26.13;10.98;;;;;;;;;;5028214;28;20365;-57
2021/12/12 11:00:57;;;;;;;23.08;10.45;;;;;;;;;;5025030;28;20382;-55
2021/12/12 11:03:24;;;;;;;23.42;10.52;;;;;;;;;;5029288;28;20353;-56
2021/12/12 11:05:58;;;;;;;26.83;11.70;;;;;;;;;;5030824;28;20575;-58
2021/12/12 11:08:27;;;;;;;27.85;12.43;;;;;;;;;;5034168;28;20048;-55
2021/12/12 11:10:54;;;;;;;30.45;12.10;;;;;;;;;;5031280;28;20056;-58
2021/12/12 11:13:26;;;;;;;24.55;11.10;;;;;;;;;;5032323;28;20045;-57
2021/12/12 11:15:57;;;;;;;29.85;11.75;;;;;;;;;;5026683;28;20032;-58
2021/12/12 11:18:28;;;;;;;25.80;11.40;;;;;;;;;;5028937;28;20044;-57
2021/12/12 11:20:59;;;;;;;25.58;11.85;;;;;;;;;;5030915;28;20017;-56
2021/12/12 11:23:28;;;;;;;28.23;11.57;;;;;;;;;;5032324;28;20152;-58
2021/12/12 11:26:02;;;;;;;29.83;12.88;;;;;;;;;;5028043;28;20026;-56
2021/12/12 11:28:31;;;;;;;27.13;12.27;;;;;;;;;;5022354;28;20022;-58
2021/12/12 11:31:04;;;;;;;27.38;12.05;;;;;;;;;;5022816;28;20048;-58
2021/12/12 11:33:32;;;;;;;24.67;11.73;;;;;;;;;;5026394;28;20112;-58
2021/12/12 11:35:59;;;;;;;26.10;12.07;;;;;;;;;;5032035;28;20037;-58
2021/12/12 11:38:37;;;;;;;28.25;12.50;;;;;;;;;;5031246;28;20032;-56
2021/12/12 11:41:09;;;;;;;29.10;11.85;;;;;;;;;;5031576;28;20361;-58
2021/12/12 11:43:35;;;;;;;29.38;12.13;;;;;;;;;;5027648;28;20025;-57
2021/12/12 11:46:04;;;;;;;26.35;11.75;;;;;;;;;;5032083;28;20038;-57
2021/12/12 11:48:49;;;;;;;30.52;12.82;;;;;;;;;;5030804;28;20021;-57
2021/12/12 11:51:21;;;;;;;31.70;12.10;;;;;;;;;;5028790;28;20022;-58
2021/12/12 11:53:55;;;;;;;30.92;12.57;;;;;;;;;;5024714;28;20537;-57
2021/12/12 11:56:25;;;;;;;28.50;12.00;;;;;;;;;;5030699;28;20037;-59
2021/12/12 11:58:51;;;;;;;31.05;12.85;;;;;;;;;;5030590;28;20044;-57
2021/12/12 12:01:20;;;;;;;33.70;12.45;;;;;;;;;;5026361;28;20029;-59
2021/12/12 12:04:09;;;;;;;28.83;13.35;;;;;;;;;;5030449;28;20335;-58
2021/12/12 12:06:41;;;;;;;28.23;13.07;;;;;;;;;;5024316;28;20033;-59
2021/12/12 12:09:27;;;;;;;28.80;12.02;;;;;;;;;;5032512;28;20032;-59
2021/12/12 12:12:03;;;;;;;24.17;10.77;;;;;;;;;;5032115;28;20025;-58
2021/12/12 12:14:35;;;;;;;27.00;12.70;;;;;;;;;;5032508;28;20030;-56
2021/12/12 12:17:12;;;;;;;32.27;13.60;;;;;;;;;;5022716;28;20026;-58
2021/12/12 12:19:57;;;;;;;28.60;12.93;;;;;;;;;;5020007;28;20483;-58
2021/12/12 12:22:37;;;;;;;28.95;12.32;;;;;;;;;;5027276;28;20022;-58
2021/12/12 12:25:25;;;;;;;30.80;12.43;;;;;;;;;;5021374;28;20038;-58
2021/12/12 12:28:05;;;;;;;27.27;12.05;;;;;;;;;;5025236;28;20532;-57
2021/12/12 12:30:31;;;;;;;31.38;12.68;;;;;;;;;;5026178;28;20087;-57
2021/12/12 12:32:57;;;;;;;26.33;12.10;;;;;;;;;;5028399;28;20042;-57
2021/12/12 12:35:42;;;;;;;39.95;16.75;;;;;;;;;;5030525;28;20080;-56
2021/12/12 12:38:28;;;;;;;40.55;17.73;;;;;;;;;;5020510;28;20104;-59
2021/12/12 12:41:12;;;;;;;35.50;15.68;;;;;;;;;;5022382;28;20421;-55
2021/12/12 12:43:57;;;;;;;27.77;12.77;;;;;;;;;;5031853;28;20541;-54
2021/12/12 12:46:23;;;;;;;29.73;12.95;;;;;;;;;;5019931;28;20038;-57
2021/12/12 12:49:07;;;;;;;27.67;11.75;;;;;;;;;;5028474;28;20041;-56
2021/12/12 12:52:00;;;;;;;26.30;12.32;;;;;;;;;;5028525;28;20104;-52
2021/12/12 12:54:27;;;;;;;28.73;12.32;;;;;;;;;;5030067;28;20105;-58
2021/12/12 12:57:09;;;;;;;29.75;12.25;;;;;;;;;;5023902;28;20033;-56
2021/12/12 12:59:48;;;;;;;27.20;11.25;;;;;;;;;;5017793;28;20088;-57
2021/12/12 13:02:20;;;;;;;25.60;11.48;;;;;;;;;;5025150;28;20354;-57
2021/12/12 13:04:58;;;;;;;27.88;11.95;;;;;;;;;;5031649;28;20076;-57
2021/12/12 13:07:43;;;;;;;25.83;12.38;;;;;;;;;;5026263;28;20253;-56
2021/12/12 13:10:15;;;;;;;26.75;12.48;;;;;;;;;;5032735;28;20026;-58
2021/12/12 13:13:00;;;;;;;28.25;12.82;;;;;;;;;;5022916;28;20038;-56
2021/12/12 13:15:37;;;;;;;29.58;12.10;;;;;;;;;;5024899;28;20093;-58
2021/12/12 13:18:08;;;;;;;30.08;12.77;;;;;;;;;;5027803;28;20081;-57
2021/12/12 13:20:57;;;;;;;24.65;12.05;;;;;;;;;;5030992;28;20032;-57
2021/12/12 13:23:42;;;;;;;29.13;12.80;;;;;;;;;;5027782;28;20028;-55
2021/12/12 13:26:12;;;;;;;30.35;12.75;;;;;;;;;;5026037;28;20075;-55
2021/12/12 13:28:52;;;;;;;29.58;11.25;;;;;;;;;;5032151;28;20388;-56
2021/12/12 13:31:21;;;;;;;28.90;11.40;;;;;;;;;;5028852;28;20055;-54
2021/12/12 13:34:03;;;;;;;22.40;10.35;;;;;;;;;;5025934;28;20589;-56
2021/12/12 13:36:50;;;;;;;28.60;11.65;;;;;;;;;;5022536;28;20061;-57
2021/12/12 13:39:23;;;;;;;23.80;10.07;;;;;;;;;;5019689;28;20068;-54
2021/12/12 13:41:53;;;;;;;27.77;10.75;;;;;;;;;;5023638;28;20111;-56
2021/12/12 13:44:42;;;;;;;18.77;9.23;;;;;;;;;;5028465;28;20099;-55
2021/12/12 13:47:31;;;;;;;21.60;9.85;;;;;;;;;;5028024;28;20108;-53
2021/12/12 13:49:59;;;;;;;25.95;10.40;;;;;;;;;;5033367;28;20068;-56
2021/12/12 13:52:34;;;;;;;23.20;10.18;;;;;;;;;;5020085;28;20065;-57
2021/12/12 13:55:05;;;;;;;20.90;9.63;;;;;;;;;;5027876;28;20104;-57
2021/12/12 13:57:35;;;;;;;22.58;10.45;;;;;;;;;;5022840;28;20045;-57
2021/12/12 14:00:07;;;;;;;23.67;10.30;;;;;;;;;;5029441;28;20108;-58
2021/12/12 14:02:34;;;;;;;21.23;9.60;;;;;;;;;;5028067;28;20021;-56
2021/12/12 14:05:20;;;;;;;27.73;12.10;;;;;;;;;;5030869;28;20038;-56
2021/12/12 14:07:49;;;;;;;21.52;10.43;;;;;;;;;;5030558;28;20034;-57
2021/12/12 14:10:21;;;;;;;22.33;9.07;;;;;;;;;;5030560;28;20090;-56
2021/12/12 14:12:48;;;;;;;24.58;11.95;;;;;;;;;;5026485;28;20021;-57
2021/12/12 14:15:19;;;;;;;21.35;9.75;;;;;;;;;;5031903;28;20095;-54
2021/12/12 14:17:47;;;;;;;26.00;11.13;;;;;;;;;;5023077;28;20072;-55
2021/12/12 14:20:15;;;;;;;20.60;10.10;;;;;;;;;;5030334;28;20112;-53
2021/12/12 14:22:41;;;;;;;24.98;11.70;;;;;;;;;;5031243;28;20038;-55
2021/12/12 14:25:09;;;;;;;21.25;9.43;;;;;;;;;;5029047;28;20041;-56
2021/12/12 14:27:35;;;;;;;19.90;9.05;;;;;;;;;;5028882;28;20040;-57
2021/12/12 14:30:04;;;;;;;19.63;8.38;;;;;;;;;;5029846;28;20028;-55
2021/12/12 14:32:36;;;;;;;22.15;9.30;;;;;;;;;;5027543;28;20079;-52
2021/12/12 14:35:13;;;;;;;21.08;9.65;;;;;;;;;;5027157;28;20067;-58
2021/12/12 14:37:39;;;;;;;24.20;10.13;;;;;;;;;;5029332;28;20720;-53
2021/12/12 14:40:11;;;;;;;23.30;9.77;;;;;;;;;;5023695;28;20117;-55
2021/12/12 14:42:44;;;;;;;26.02;10.00;;;;;;;;;;5020813;28;20026;-53
2021/12/12 14:45:17;;;;;;;23.85;10.30;;;;;;;;;;5031743;28;20406;-57
2021/12/12 14:47:45;;;;;;;21.08;9.38;;;;;;;;;;5024109;28;20480;-55
2021/12/12 14:50:18;;;;;;;20.02;9.05;;;;;;;;;;5031254;28;20031;-56
2021/12/12 14:52:45;;;;;;;19.67;9.13;;;;;;;;;;5027188;28;20104;-57
2021/12/12 14:55:19;;;;;;;24.85;9.27;;;;;;;;;;5020384;28;20033;-57
2021/12/12 14:57:48;;;;;;;23.23;9.57;;;;;;;;;;5023130;28;20064;-57
2021/12/12 15:00:22;;;;;;;19.23;9.18;;;;;;;;;;5024432;28;20025;-54
2021/12/12 15:02:59;;;;;;;22.88;9.55;;;;;;;;;;5021938;28;20539;-57